createdAt,value
2022-07-27T00:05:00.058Z,21.75
2022-07-27T00:10:02.450Z,19.60
2022-07-27T00:15:06.946Z,20.52
2022-07-27T00:20:09.869Z,17.30
2022-07-27T00:25:12.286Z,17.55
2022-07-27T00:30:18.864Z,17.13
2022-07-27T00:35:21.273Z,16.10
2022-07-27T00:40:23.719Z,18.65
2022-07-27T00:45:25.992Z,16.30
2022-07-27T00:50:28.388Z,14.48
2022-07-27T00:55:33.274Z,16.17
2022-07-27T01:00:39.383Z,16.08
2022-07-27T01:05:43.059Z,17.98
2022-07-27T01:10:46.755Z,17.25
2022-07-27T01:15:49.159Z,16.15
2022-07-27T01:20:51.473Z,15.35
2022-07-27T01:25:54.630Z,14.80
2022-07-27T01:31:15.617Z,15.43
2022-07-27T01:36:17.969Z,18.77
2022-07-27T01:41:20.276Z,17.43
2022-07-27T01:46:23.005Z,18.37
2022-07-27T01:51:25.395Z,15.13
2022-07-27T01:56:27.771Z,17.17
2022-07-27T02:01:30.216Z,18.45
2022-07-27T02:06:32.610Z,18.07
2022-07-27T02:11:53.536Z,16.73
2022-07-27T02:16:55.824Z,19.55
2022-07-27T02:21:58.101Z,16.85
2022-07-27T02:27:00.386Z,19.45
2022-07-27T02:32:02.824Z,15.77
2022-07-27T02:37:05.919Z,17.13
2022-07-27T02:42:08.348Z,17.77
2022-07-27T02:47:10.998Z,16.13
2022-07-27T02:52:13.395Z,16.97
2022-07-27T02:57:15.803Z,19.53
2022-07-27T03:02:18.202Z,19.37
2022-07-27T03:07:20.569Z,20.05
2022-07-27T03:12:23.008Z,17.77
2022-07-27T03:17:25.546Z,17.80
2022-07-27T03:22:31.052Z,18.58
2022-07-27T03:27:33.368Z,25.27
2022-07-27T03:32:35.686Z,21.92
2022-07-27T03:37:38.057Z,25.25
2022-07-27T03:42:40.339Z,21.58
2022-07-27T03:47:42.677Z,19.85
2022-07-27T03:52:45.583Z,22.65
2022-07-27T03:57:48.246Z,19.33
2022-07-27T04:02:50.648Z,28.80
2022-07-27T04:07:54.951Z,22.48
2022-07-27T04:12:57.454Z,29.95
2022-07-27T04:18:00.955Z,32.45
2022-07-27T04:23:03.315Z,24.30
2022-07-27T04:28:05.969Z,23.98
2022-07-27T04:33:08.199Z,29.45
2022-07-27T04:38:10.444Z,25.20
2022-07-27T04:43:12.891Z,23.63
2022-07-27T04:48:15.195Z,20.92
2022-07-27T04:53:17.563Z,23.38
2022-07-27T04:58:20.000Z,20.55
2022-07-27T05:03:22.335Z,21.88
2022-07-27T05:08:24.763Z,23.98
2022-07-27T05:13:27.159Z,25.38
2022-07-27T05:18:29.565Z,31.73
2022-07-27T05:23:31.998Z,22.75
2022-07-27T05:28:34.300Z,20.95
2022-07-27T05:33:36.759Z,21.50
2022-07-27T05:38:39.738Z,21.95
2022-07-27T05:43:42.179Z,26.20
2022-07-27T05:48:44.671Z,21.52
2022-07-27T05:53:46.994Z,24.35
2022-07-27T05:58:51.865Z,21.20
2022-07-27T06:03:54.202Z,22.13
2022-07-27T06:08:56.599Z,21.52
2022-07-27T06:13:59.095Z,23.23
2022-07-27T06:19:01.506Z,20.77
2022-07-27T06:24:03.981Z,20.00
2022-07-27T06:29:10.572Z,24.60
2022-07-27T06:34:13.326Z,22.45
2022-07-27T06:39:17.240Z,24.17
2022-07-27T06:44:19.541Z,22.13
2022-07-27T06:49:22.286Z,21.67
2022-07-27T06:54:24.804Z,21.45
2022-07-27T06:59:27.205Z,20.00
2022-07-27T07:04:46.344Z,18.55
2022-07-27T07:09:48.817Z,24.88
2022-07-27T07:14:51.140Z,20.27
2022-07-27T07:19:53.450Z,20.30
2022-07-27T07:25:00.696Z,19.30
2022-07-27T07:30:05.949Z,19.33
2022-07-27T07:35:08.802Z,19.65
2022-07-27T07:45:50.424Z,15.65
2022-07-27T07:51:11.335Z,16.77
2022-07-27T07:56:30.164Z,15.23
2022-07-27T08:01:35.397Z,17.52
2022-07-27T08:06:40.579Z,20.75
2022-07-27T08:11:48.882Z,17.65
2022-07-27T08:16:51.100Z,17.80
2022-07-27T08:21:53.468Z,20.30
2022-07-27T08:26:55.986Z,20.83
2022-07-27T08:31:58.510Z,18.98
2022-07-27T08:37:02.173Z,18.88
2022-07-27T08:42:05.211Z,23.15
2022-07-27T08:47:11.962Z,19.70
2022-07-27T08:52:14.339Z,23.40
2022-07-27T08:57:16.850Z,23.73
2022-07-27T09:02:21.965Z,23.38
2022-07-27T09:07:31.247Z,23.88
2022-07-27T09:12:34.507Z,20.95
2022-07-27T09:17:48.556Z,22.10
2022-07-27T09:22:56.541Z,21.08
2022-07-27T09:27:59.804Z,20.63
2022-07-27T09:33:06.760Z,21.17
2022-07-27T09:38:23.297Z,23.17
2022-07-27T09:48:48.155Z,20.98
2022-07-27T09:53:50.571Z,21.50
2022-07-27T09:58:56.825Z,22.13
2022-07-27T10:04:02.317Z,24.58
2022-07-27T10:09:04.934Z,23.45
2022-07-27T10:14:07.960Z,21.92
2022-07-27T10:19:16.908Z,24.77
2022-07-27T10:24:32.455Z,20.15
2022-07-27T10:29:34.772Z,22.88
2022-07-27T10:34:41.991Z,20.60
2022-07-27T10:39:51.405Z,21.15
2022-07-27T10:44:59.648Z,19.73
2022-07-27T10:50:17.673Z,22.25
2022-07-27T11:01:02.291Z,19.58
2022-07-27T11:06:31.876Z,20.55
2022-07-27T11:11:34.884Z,18.92
2022-07-27T11:16:53.988Z,20.02
2022-07-27T11:21:58.245Z,18.65
2022-07-27T11:27:00.557Z,20.30
2022-07-27T11:32:19.666Z,21.20
2022-07-27T11:37:24.358Z,19.48
2022-07-27T11:42:37.809Z,19.83
2022-07-27T11:47:40.264Z,20.80
2022-07-27T11:52:45.797Z,19.73
2022-07-27T11:57:48.186Z,19.48
2022-07-27T12:02:51.807Z,20.15
2022-07-27T12:07:54.775Z,19.35
2022-07-27T12:12:57.112Z,20.95
2022-07-27T12:17:59.460Z,18.90
2022-07-27T12:23:07.127Z,21.80
2022-07-27T12:28:13.440Z,19.83
2022-07-27T12:33:30.676Z,20.42
2022-07-27T12:38:43.883Z,22.52
2022-07-27T12:43:46.586Z,20.50
2022-07-27T12:48:49.078Z,21.73
2022-07-27T12:53:52.713Z,22.08
2022-07-27T12:59:02.442Z,21.83
2022-07-27T13:04:04.813Z,21.25
2022-07-27T13:09:07.103Z,22.63
2022-07-27T13:14:09.562Z,21.95
2022-07-27T13:19:15.920Z,18.52
2022-07-27T13:24:21.851Z,21.63
2022-07-27T13:29:24.231Z,19.85
2022-07-27T13:34:26.700Z,19.45
2022-07-27T13:39:30.094Z,20.95
2022-07-27T13:49:58.969Z,15.57
2022-07-27T13:55:01.426Z,17.75
2022-07-27T14:00:05.889Z,16.40
2022-07-27T14:05:08.876Z,15.98
2022-07-27T14:10:31.363Z,20.15
2022-07-27T14:15:34.579Z,16.45
2022-07-27T14:20:53.876Z,19.13
2022-07-27T14:25:57.284Z,17.25
2022-07-27T14:31:00.917Z,18.23
2022-07-27T14:36:04.590Z,20.17
2022-07-27T14:41:07.184Z,22.05
2022-07-27T14:46:09.510Z,18.77
2022-07-27T14:51:11.860Z,17.13
2022-07-27T14:56:14.276Z,19.52
2022-07-27T15:01:17.247Z,22.05
2022-07-27T15:06:19.883Z,23.40
2022-07-27T15:11:22.254Z,26.60
2022-07-27T15:16:24.882Z,20.77
2022-07-27T15:21:27.796Z,21.25
2022-07-27T15:26:30.133Z,23.95
2022-07-27T15:31:32.554Z,23.75
2022-07-27T15:36:40.565Z,22.27
2022-07-27T15:41:46.467Z,19.50
2022-07-27T15:46:49.238Z,20.80
2022-07-27T15:51:52.873Z,19.95
2022-07-27T15:56:57.800Z,20.70
2022-07-27T16:02:00.279Z,22.63
2022-07-27T16:07:02.606Z,22.27
2022-07-27T16:12:05.091Z,23.33
2022-07-27T16:17:07.492Z,21.42
2022-07-27T16:22:10.287Z,22.02
2022-07-27T16:27:12.769Z,22.55
2022-07-27T16:32:15.188Z,20.70
2022-07-27T16:37:17.659Z,21.17
2022-07-27T16:42:20.183Z,19.90
2022-07-27T16:47:24.008Z,23.60
2022-07-27T16:52:26.456Z,21.88
2022-07-27T16:57:28.849Z,20.35
2022-07-27T17:02:31.244Z,22.48
2022-07-27T17:07:33.754Z,18.77
2022-07-27T17:12:39.438Z,19.52
2022-07-27T17:17:41.883Z,15.23
2022-07-27T17:22:44.347Z,17.88
2022-07-27T17:27:47.185Z,16.25
2022-07-27T17:32:49.657Z,27.77
2022-07-27T17:38:07.632Z,21.30
2022-07-27T17:43:10.275Z,16.98
2022-07-27T17:48:12.798Z,17.42
2022-07-27T17:53:16.062Z,27.88
2022-07-27T17:58:18.518Z,17.92
2022-07-27T18:03:22.166Z,22.30
2022-07-27T18:08:24.916Z,19.52
2022-07-27T18:13:38.016Z,26.52
2022-07-27T18:18:42.753Z,21.08
2022-07-27T18:23:47.040Z,27.55
2022-07-27T18:28:51.193Z,25.33
2022-07-27T18:33:54.778Z,13.68
2022-07-27T18:38:58.143Z,15.40
2022-07-27T18:44:00.579Z,17.98
2022-07-27T18:49:06.019Z,13.77
2022-07-27T18:59:26.558Z,9.77
2022-07-27T19:04:29.931Z,7.75
2022-07-27T19:09:37.129Z,8.13
2022-07-27T19:14:39.976Z,8.45
2022-07-27T19:19:42.628Z,9.35
2022-07-27T19:24:54.963Z,9.50
2022-07-27T19:29:59.237Z,9.20
2022-07-27T19:35:01.765Z,6.43
2022-07-27T19:40:20.108Z,5.20
2022-07-27T19:45:27.254Z,5.93
2022-07-27T19:50:29.788Z,5.88
2022-07-27T19:55:35.409Z,6.20
2022-07-27T20:00:41.127Z,8.15
2022-07-27T20:05:43.655Z,7.65
2022-07-27T20:10:47.625Z,8.05
2022-07-27T20:15:50.146Z,7.22
2022-07-27T20:20:52.503Z,10.30
2022-07-27T20:25:54.901Z,7.65
2022-07-27T20:30:57.402Z,6.97
2022-07-27T20:35:59.839Z,7.13
2022-07-27T20:41:02.154Z,7.60
2022-07-27T20:46:04.651Z,11.52
2022-07-27T20:51:07.064Z,7.60
2022-07-27T20:56:09.547Z,7.93
2022-07-27T21:01:12.076Z,8.57
2022-07-27T21:06:14.402Z,7.13
2022-07-27T21:11:16.816Z,9.50
2022-07-27T21:16:19.269Z,7.63
2022-07-27T21:21:26.973Z,10.35
2022-07-27T21:26:30.077Z,7.00
2022-07-27T21:31:32.539Z,7.45
2022-07-27T21:36:35.372Z,15.45
2022-07-27T21:41:37.985Z,8.15
2022-07-27T21:46:40.277Z,7.72
2022-07-27T21:51:42.645Z,10.35
2022-07-27T21:56:50.338Z,8.43
2022-07-27T22:01:53.042Z,8.07
2022-07-27T22:06:56.101Z,9.18
2022-07-27T22:11:58.621Z,7.93
2022-07-27T22:17:03.348Z,9.38
2022-07-27T22:22:05.752Z,13.57
2022-07-27T22:27:08.147Z,10.57
2022-07-27T22:32:12.309Z,10.32
2022-07-27T22:37:15.188Z,11.43
2022-07-27T22:42:17.717Z,10.07
2022-07-27T22:47:20.100Z,7.80
2022-07-27T22:52:22.469Z,8.38
2022-07-27T22:57:26.000Z,10.38
2022-07-27T23:02:28.375Z,11.02
2022-07-27T23:07:30.663Z,12.75
2022-07-27T23:12:33.040Z,7.93
2022-07-27T23:17:35.319Z,9.75
2022-07-27T23:22:37.596Z,14.40
2022-07-27T23:27:40.983Z,11.52
2022-07-27T23:32:43.307Z,10.80
2022-07-27T23:37:45.612Z,10.57
2022-07-27T23:42:48.295Z,12.10
2022-07-27T23:47:50.734Z,10.68
2022-07-27T23:52:53.014Z,13.60
2022-07-27T23:57:55.309Z,9.30
